Ferdinand, Idaho
Current Conditions -  °F | °C
As of 10:55 PM on Sunday 23 Nov 2014 (Local Time) from KGIC Reporting Station
Scattered Clouds Scattered Clouds  
Wind Chill: 29°   Ceiling: Unl
Heat Index: 35°   Visibility: 10mi
Dew Point: 29°   Wind: 8mph
Humidity: 78%   Direction: 240°WSW
Pressure: 30.2"   Gusts: NA
Location:  46.15°N, 116.39°W
Report Text: KGIC 240655Z AUTO 24007KT 10SM SCT048 02/M02 A3020 RMK AO1 T00191016 400410003
Loading
Personal Weather Stations






























Interactive Weather Map New forecast layout! Learn more

10-Day Weather Forecast

Advertisements
Track Severe Weather on mobile